sensor_id;sensor_type;location;lat;lon;timestamp;pressure;altitude;pressure_sealevel;temperature
71428;BMP280;59246;59.102;37.928;2022-09-03T00:07:15;100013.91;;;8.21
71428;BMP280;59246;59.102;37.928;2022-09-03T00:09:42;100026.06;;;8.22
71428;BMP280;59246;59.102;37.928;2022-09-03T00:12:15;100021.31;;;8.24
71428;BMP280;59246;59.102;37.928;2022-09-03T00:14:49;100011.25;;;8.26
71428;BMP280;59246;59.102;37.928;2022-09-03T00:17:17;100013.41;;;8.29
71428;BMP280;59246;59.102;37.928;2022-09-03T00:22:20;100024.53;;;8.31
71428;BMP280;59246;59.102;37.928;2022-09-03T00:24:47;100028.72;;;8.27
71428;BMP280;59246;59.102;37.928;2022-09-03T00:27:23;100027.88;;;8.21
71428;BMP280;59246;59.102;37.928;2022-09-03T00:32:23;100025.50;;;8.15
71428;BMP280;59246;59.102;37.928;2022-09-03T00:34:54;100026.28;;;8.10
71428;BMP280;59246;59.102;37.928;2022-09-03T00:37:21;100032.31;;;8.11
71428;BMP280;59246;59.102;37.928;2022-09-03T00:39:46;100050.31;;;8.09
71428;BMP280;59246;59.102;37.928;2022-09-03T00:42:34;100031.75;;;8.03
71428;BMP280;59246;59.102;37.928;2022-09-03T00:52:40;100041.00;;;8.01
71428;BMP280;59246;59.102;37.928;2022-09-03T01:00:19;100038.03;;;7.92
71428;BMP280;59246;59.102;37.928;2022-09-03T01:03:02;100043.56;;;7.91
71428;BMP280;59246;59.102;37.928;2022-09-03T01:08:22;100047.53;;;7.93
71428;BMP280;59246;59.102;37.928;2022-09-03T01:11:09;100050.19;;;7.93
71428;BMP280;59246;59.102;37.928;2022-09-03T01:13:49;100050.69;;;7.90
71428;BMP280;59246;59.102;37.928;2022-09-03T01:24:13;100048.28;;;7.83
71428;BMP280;59246;59.102;37.928;2022-09-03T01:27:09;100050.69;;;7.85
71428;BMP280;59246;59.102;37.928;2022-09-03T01:29:33;100050.16;;;7.83
71428;BMP280;59246;59.102;37.928;2022-09-03T01:32:07;100045.66;;;7.83
71428;BMP280;59246;59.102;37.928;2022-09-03T01:37:20;100052.78;;;7.83
71428;BMP280;59246;59.102;37.928;2022-09-03T01:47:47;100059.59;;;7.79
71428;BMP280;59246;59.102;37.928;2022-09-03T01:53:01;100056.97;;;7.79
71428;BMP280;59246;59.102;37.928;2022-09-03T01:56:16;100073.34;;;7.76
71428;BMP280;59246;59.102;37.928;2022-09-03T01:58:20;100073.75;;;7.62
71428;BMP280;59246;59.102;37.928;2022-09-03T02:00:54;100071.78;;;7.48
71428;BMP280;59246;59.102;37.928;2022-09-03T02:03:21;100080.72;;;7.41
71428;BMP280;59246;59.102;37.928;2022-09-03T02:05:47;100070.88;;;7.37
71428;BMP280;59246;59.102;37.928;2022-09-03T02:08:14;100084.78;;;7.32
71428;BMP280;59246;59.102;37.928;2022-09-03T02:10:44;100079.75;;;7.25
71428;BMP280;59246;59.102;37.928;2022-09-03T02:15:47;100072.75;;;7.14
71428;BMP280;59246;59.102;37.928;2022-09-03T02:18:18;100070.94;;;7.15
71428;BMP280;59246;59.102;37.928;2022-09-03T02:20:45;100067.47;;;7.14
71428;BMP280;59246;59.102;37.928;2022-09-03T02:23:13;100075.97;;;7.16
71428;BMP280;59246;59.102;37.928;2022-09-03T02:25:41;100069.09;;;7.15
71428;BMP280;59246;59.102;37.928;2022-09-03T02:28:07;100079.66;;;7.20
71428;BMP280;59246;59.102;37.928;2022-09-03T02:30:33;100086.13;;;7.30
71428;BMP280;59246;59.102;37.928;2022-09-03T02:32:59;100087.19;;;7.34
71428;BMP280;59246;59.102;37.928;2022-09-03T02:35:25;100085.66;;;7.38
71428;BMP280;59246;59.102;37.928;2022-09-03T02:37:50;100096.53;;;7.41
71428;BMP280;59246;59.102;37.928;2022-09-03T02:40:16;100080.44;;;7.43
71428;BMP280;59246;59.102;37.928;2022-09-03T02:42:42;100091.53;;;7.45
71428;BMP280;59246;59.102;37.928;2022-09-03T02:45:27;100089.38;;;7.42
71428;BMP280;59246;59.102;37.928;2022-09-03T02:47:54;100093.09;;;7.41
71428;BMP280;59246;59.102;37.928;2022-09-03T02:50:20;100095.72;;;7.41
71428;BMP280;59246;59.102;37.928;2022-09-03T02:52:45;100093.09;;;7.41
71428;BMP280;59246;59.102;37.928;2022-09-03T02:55:11;100094.41;;;7.38
71428;BMP280;59246;59.102;37.928;2022-09-03T02:57:36;100100.22;;;7.40
71428;BMP280;59246;59.102;37.928;2022-09-03T03:00:02;100094.16;;;7.40
71428;BMP280;59246;59.102;37.928;2022-09-03T03:02:27;100104.69;;;7.40
71428;BMP280;59246;59.102;37.928;2022-09-03T03:04:53;100103.09;;;7.39
71428;BMP280;59246;59.102;37.928;2022-09-03T03:07:20;100098.84;;;7.38
71428;BMP280;59246;59.102;37.928;2022-09-03T03:09:45;100103.59;;;7.36
71428;BMP280;59246;59.102;37.928;2022-09-03T03:12:11;100104.63;;;7.35
71428;BMP280;59246;59.102;37.928;2022-09-03T03:14:36;100111.75;;;7.34
71428;BMP280;59246;59.102;37.928;2022-09-03T03:17:02;100105.66;;;7.34
71428;BMP280;59246;59.102;37.928;2022-09-03T03:19:27;100107.75;;;7.32
71428;BMP280;59246;59.102;37.928;2022-09-03T03:21:53;100106.16;;;7.31
71428;BMP280;59246;59.102;37.928;2022-09-03T03:24:18;100118.84;;;7.29
71428;BMP280;59246;59.102;37.928;2022-09-03T03:26:44;100116.44;;;7.27
71428;BMP280;59246;59.102;37.928;2022-09-03T03:29:13;100132.03;;;7.29
71428;BMP280;59246;59.102;37.928;2022-09-03T03:31:38;100116.19;;;7.29
71428;BMP280;59246;59.102;37.928;2022-09-03T03:34:04;100114.88;;;7.31
71428;BMP280;59246;59.102;37.928;2022-09-03T03:36:31;100115.16;;;7.30
71428;BMP280;59246;59.102;37.928;2022-09-03T03:38:57;100115.41;;;7.28
71428;BMP280;59246;59.102;37.928;2022-09-03T03:41:24;100125.38;;;7.26
71428;BMP280;59246;59.102;37.928;2022-09-03T03:43:53;100137.78;;;7.25
71428;BMP280;59246;59.102;37.928;2022-09-03T03:46:22;100134.91;;;7.27
71428;BMP280;59246;59.102;37.928;2022-09-03T03:48:49;100131.50;;;7.32
71428;BMP280;59246;59.102;37.928;2022-09-03T03:51:14;100137.66;;;7.37
71428;BMP280;59246;59.102;37.928;2022-09-03T03:53:40;100129.41;;;7.34
71428;BMP280;59246;59.102;37.928;2022-09-03T03:56:07;100136.28;;;7.35
71428;BMP280;59246;59.102;37.928;2022-09-03T03:58:34;100138.44;;;7.38
71428;BMP280;59246;59.102;37.928;2022-09-03T04:01:06;100138.44;;;7.38
71428;BMP280;59246;59.102;37.928;2022-09-03T04:03:33;100138.38;;;7.33
71428;BMP280;59246;59.102;37.928;2022-09-03T04:05:58;100144.94;;;7.30
71428;BMP280;59246;59.102;37.928;2022-09-03T04:08:25;100137.56;;;7.32
71428;BMP280;59246;59.102;37.928;2022-09-03T04:10:50;100143.97;;;7.36
71428;BMP280;59246;59.102;37.928;2022-09-03T04:13:16;100143.22;;;7.41
71428;BMP280;59246;59.102;37.928;2022-09-03T04:15:42;100159.59;;;7.43
71428;BMP280;59246;59.102;37.928;2022-09-03T04:18:07;100149.56;;;7.40
71428;BMP280;59246;59.102;37.928;2022-09-03T04:20:34;100151.16;;;7.41
71428;BMP280;59246;59.102;37.928;2022-09-03T04:23:00;100156.41;;;7.41
71428;BMP280;59246;59.102;37.928;2022-09-03T04:25:26;100137.19;;;7.45
71428;BMP280;59246;59.102;37.928;2022-09-03T04:27:52;100149.44;;;7.57
71428;BMP280;59246;59.102;37.928;2022-09-03T04:30:18;100153.22;;;7.66
71428;BMP280;59246;59.102;37.928;2022-09-03T04:32:43;100155.69;;;7.73
71428;BMP280;59246;59.102;37.928;2022-09-03T04:35:18;100154.22;;;7.87
71428;BMP280;59246;59.102;37.928;2022-09-03T04:37:45;100155.91;;;7.98
71428;BMP280;59246;59.102;37.928;2022-09-03T04:40:10;100150.97;;;8.12
71428;BMP280;59246;59.102;37.928;2022-09-03T04:42:36;100153.50;;;8.29
71428;BMP280;59246;59.102;37.928;2022-09-03T04:45:01;100150.34;;;8.37
71428;BMP280;59246;59.102;37.928;2022-09-03T04:47:27;100154.16;;;8.52
71428;BMP280;59246;59.102;37.928;2022-09-03T04:49:52;100152.03;;;8.54
71428;BMP280;59246;59.102;37.928;2022-09-03T04:52:20;100159.22;;;8.64
71428;BMP280;59246;59.102;37.928;2022-09-03T04:54:45;100157.97;;;8.71
71428;BMP280;59246;59.102;37.928;2022-09-03T04:57:11;100172.25;;;8.75
71428;BMP280;59246;59.102;37.928;2022-09-03T04:59:36;100172.28;;;8.81
71428;BMP280;59246;59.102;37.928;2022-09-03T05:02:02;100171.81;;;8.89
71428;BMP280;59246;59.102;37.928;2022-09-03T05:04:28;100171.28;;;8.92
71428;BMP280;59246;59.102;37.928;2022-09-03T05:06:53;100164.41;;;8.91
71428;BMP280;59246;59.102;37.928;2022-09-03T05:09:19;100171.84;;;9.04
71428;BMP280;59246;59.102;37.928;2022-09-03T05:11:44;100164.97;;;9.03
71428;BMP280;59246;59.102;37.928;2022-09-03T05:14:10;100166.81;;;9.08
71428;BMP280;59246;59.102;37.928;2022-09-03T05:16:36;100170.03;;;9.10
71428;BMP280;59246;59.102;37.928;2022-09-03T05:19:02;100172.13;;;9.08
71428;BMP280;59246;59.102;37.928;2022-09-03T05:21:30;100170.31;;;9.13
71428;BMP280;59246;59.102;37.928;2022-09-03T05:23:56;100172.41;;;9.16
71428;BMP280;59246;59.102;37.928;2022-09-03T05:26:22;100172.72;;;9.25
71428;BMP280;59246;59.102;37.928;2022-09-03T05:28:51;100174.59;;;9.35
71428;BMP280;59246;59.102;37.928;2022-09-03T05:31:18;100177.75;;;9.42
71428;BMP280;59246;59.102;37.928;2022-09-03T05:33:44;100192.63;;;9.38
71428;BMP280;59246;59.102;37.928;2022-09-03T05:36:11;100177.78;;;9.37
71428;BMP280;59246;59.102;37.928;2022-09-03T05:38:36;100186.81;;;9.41
71428;BMP280;59246;59.102;37.928;2022-09-03T05:41:04;100184.13;;;9.36
71428;BMP280;59246;59.102;37.928;2022-09-03T05:43:30;100196.81;;;9.34
71428;BMP280;59246;59.102;37.928;2022-09-03T05:45:59;100195.78;;;9.40
71428;BMP280;59246;59.102;37.928;2022-09-03T05:48:25;100219.13;;;9.48
71428;BMP280;59246;59.102;37.928;2022-09-03T05:50:58;100204.28;;;9.47
71428;BMP280;59246;59.102;37.928;2022-09-03T05:53:24;100203.47;;;9.42
71428;BMP280;59246;59.102;37.928;2022-09-03T05:55:56;100222.00;;;9.37
71428;BMP280;59246;59.102;37.928;2022-09-03T05:58:22;100212.69;;;9.34
71428;BMP280;59246;59.102;37.928;2022-09-03T06:00:49;100199.47;;;9.39
71428;BMP280;59246;59.102;37.928;2022-09-03T06:03:15;100216.44;;;9.43
71428;BMP280;59246;59.102;37.928;2022-09-03T06:05:48;100213.78;;;9.38
71428;BMP280;59246;59.102;37.928;2022-09-03T06:08:14;100230.72;;;9.32
71428;BMP280;59246;59.102;37.928;2022-09-03T06:10:42;100216.13;;;9.34
71428;BMP280;59246;59.102;37.928;2022-09-03T06:13:07;100222.00;;;9.47
71428;BMP280;59246;59.102;37.928;2022-09-03T06:15:33;100217.22;;;9.39
71428;BMP280;59246;59.102;37.928;2022-09-03T06:17:58;100222.28;;;9.40
71428;BMP280;59246;59.102;37.928;2022-09-03T06:20:24;100219.94;;;9.59
71428;BMP280;59246;59.102;37.928;2022-09-03T06:22:53;100219.13;;;9.79
71428;BMP280;59246;59.102;37.928;2022-09-03T06:25:18;100224.25;;;9.96
71428;BMP280;59246;59.102;37.928;2022-09-03T06:27:44;100234.81;;;10.11
71428;BMP280;59246;59.102;37.928;2022-09-03T06:30:10;100222.88;;;10.24
71428;BMP280;59246;59.102;37.928;2022-09-03T06:32:43;100231.34;;;10.32
71428;BMP280;59246;59.102;37.928;2022-09-03T06:35:08;100228.72;;;10.26
71428;BMP280;59246;59.102;37.928;2022-09-03T06:37:38;100252.03;;;10.19
71428;BMP280;59246;59.102;37.928;2022-09-03T06:40:04;100244.63;;;10.11
71428;BMP280;59246;59.102;37.928;2022-09-03T06:42:29;100246.75;;;10.04
71428;BMP280;59246;59.102;37.928;2022-09-03T06:44:55;100234.78;;;10.06
71428;BMP280;59246;59.102;37.928;2022-09-03T06:47:22;100238.25;;;10.12
71428;BMP280;59246;59.102;37.928;2022-09-03T06:49:47;100238.53;;;10.16
71428;BMP280;59246;59.102;37.928;2022-09-03T06:52:12;100257.09;;;10.21
71428;BMP280;59246;59.102;37.928;2022-09-03T06:54:38;100238.53;;;10.26
71428;BMP280;59246;59.102;37.928;2022-09-03T06:57:04;100236.94;;;10.25
71428;BMP280;59246;59.102;37.928;2022-09-03T06:59:50;100234.28;;;10.30
71428;BMP280;59246;59.102;37.928;2022-09-03T07:02:35;100230.78;;;10.55
71428;BMP280;59246;59.102;37.928;2022-09-03T07:05:22;100234.72;;;10.73
71428;BMP280;59246;59.102;37.928;2022-09-03T07:08:09;100236.03;;;10.86
71428;BMP280;59246;59.102;37.928;2022-09-03T07:11:31;100248.97;;;10.93
71428;BMP280;59246;59.102;37.928;2022-09-03T07:14:53;100248.78;;;10.84
71428;BMP280;59246;59.102;37.928;2022-09-03T07:21:02;100241.41;;;11.31
71428;BMP280;59246;59.102;37.928;2022-09-03T07:23:46;100246.66;;;11.41
71428;BMP280;59246;59.102;37.928;2022-09-03T07:26:36;100250.69;;;11.33
71428;BMP280;59246;59.102;37.928;2022-09-03T07:29:22;100244.06;;;11.31
71428;BMP280;59246;59.102;37.928;2022-09-03T07:32:07;100245.81;;;11.51
71428;BMP280;59246;59.102;37.928;2022-09-03T07:35:30;100242.53;;;11.64
71428;BMP280;59246;59.102;37.928;2022-09-03T07:41:37;100253.53;;;11.87
71428;BMP280;59246;59.102;37.928;2022-09-03T07:44:59;100265.88;;;11.72
71428;BMP280;59246;59.102;37.928;2022-09-03T07:47:45;100265.38;;;11.65
71428;BMP280;59246;59.102;37.928;2022-09-03T07:50:30;100256.69;;;11.54
71428;BMP280;59246;59.102;37.928;2022-09-03T07:53:15;100257.75;;;11.58
71428;BMP280;59246;59.102;37.928;2022-09-03T07:56:02;100267.00;;;11.66
71428;BMP280;59246;59.102;37.928;2022-09-03T07:58:46;100247.72;;;11.40
71428;BMP280;59246;59.102;37.928;2022-09-03T08:02:09;100248.31;;;11.32
71428;BMP280;59246;59.102;37.928;2022-09-03T08:04:55;100253.78;;;11.51
71428;BMP280;59246;59.102;37.928;2022-09-03T08:07:43;100256.91;;;11.58
71428;BMP280;59246;59.102;37.928;2022-09-03T08:10:43;100257.94;;;11.67
71428;BMP280;59246;59.102;37.928;2022-09-03T08:13:32;100265.00;;;11.82
71428;BMP280;59246;59.102;37.928;2022-09-03T08:17:00;100258.13;;;11.76
71428;BMP280;59246;59.102;37.928;2022-09-03T08:20:29;100263.78;;;12.03
71428;BMP280;59246;59.102;37.928;2022-09-03T08:23:14;100275.91;;;12.20
71428;BMP280;59246;59.102;37.928;2022-09-03T08:29:21;100265.06;;;12.35
71428;BMP280;59246;59.102;37.928;2022-09-03T08:35:29;100267.72;;;12.40
71428;BMP280;59246;59.102;37.928;2022-09-03T08:38:16;100272.13;;;12.50
71428;BMP280;59246;59.102;37.928;2022-09-03T08:41:06;100267.63;;;12.51
71428;BMP280;59246;59.102;37.928;2022-09-03T08:49:59;100263.25;;;12.84
71428;BMP280;59246;59.102;37.928;2022-09-03T08:53:06;100270.59;;;12.92
71428;BMP280;59246;59.102;37.928;2022-09-03T08:58:17;100262.50;;;13.02
71428;BMP280;59246;59.102;37.928;2022-09-03T09:01:48;100270.16;;;13.09
71428;BMP280;59246;59.102;37.928;2022-09-03T09:10:12;100268.56;;;13.27
71428;BMP280;59246;59.102;37.928;2022-09-03T09:15:38;100278.00;;;13.38
71428;BMP280;59246;59.102;37.928;2022-09-03T09:18:22;100274.19;;;13.45
71428;BMP280;59246;59.102;37.928;2022-09-03T09:21:09;100277.06;;;13.67
71428;BMP280;59246;59.102;37.928;2022-09-03T09:23:53;100276.16;;;13.91
71428;BMP280;59246;59.102;37.928;2022-09-03T09:26:39;100280.31;;;13.97
71428;BMP280;59246;59.102;37.928;2022-09-03T09:29:24;100273.22;;;13.92
71428;BMP280;59246;59.102;37.928;2022-09-03T09:32:09;100264.47;;;14.19
71428;BMP280;59246;59.102;37.928;2022-09-03T09:35:31;100265.88;;;14.31
71428;BMP280;59246;59.102;37.928;2022-09-03T09:38:26;100263.81;;;14.42
71428;BMP280;59246;59.102;37.928;2022-09-03T09:44:24;100243.72;;;14.16
71428;BMP280;59246;59.102;37.928;2022-09-03T09:47:10;100270.41;;;13.84
71428;BMP280;59246;59.102;37.928;2022-09-03T09:49:59;100278.81;;;13.39
71428;BMP280;59246;59.102;37.928;2022-09-03T09:52:41;100274.84;;;12.93
71428;BMP280;59246;59.102;37.928;2022-09-03T09:59:10;100290.38;;;12.33
71428;BMP280;59246;59.102;37.928;2022-09-03T10:02:03;100282.16;;;12.29
71428;BMP280;59246;59.102;37.928;2022-09-03T10:04:48;100277.63;;;12.30
71428;BMP280;59246;59.102;37.928;2022-09-03T10:07:33;100266.47;;;12.28
71428;BMP280;59246;59.102;37.928;2022-09-03T10:10:19;100267.84;;;12.25
71428;BMP280;59246;59.102;37.928;2022-09-03T10:13:42;100267.97;;;12.10
71428;BMP280;59246;59.102;37.928;2022-09-03T10:16:12;100264.47;;;12.14
71428;BMP280;59246;59.102;37.928;2022-09-03T10:18:42;100263.75;;;12.38
71428;BMP280;59246;59.102;37.928;2022-09-03T10:21:11;100263.38;;;12.74
71428;BMP280;59246;59.102;37.928;2022-09-03T10:26:22;100266.44;;;13.05
71428;BMP280;59246;59.102;37.928;2022-09-03T10:28:57;100283.94;;;13.11
71428;BMP280;59246;59.102;37.928;2022-09-03T10:36:47;100277.13;;;13.81
71428;BMP280;59246;59.102;37.928;2022-09-03T10:42:01;100290.31;;;13.72
71428;BMP280;59246;59.102;37.928;2022-09-03T10:47:16;100287.16;;;13.70
71428;BMP280;59246;59.102;37.928;2022-09-03T10:53:12;100288.91;;;14.40
71428;BMP280;59246;59.102;37.928;2022-09-03T11:05:23;100276.47;;;14.50
71428;BMP280;59246;59.102;37.928;2022-09-03T11:08:41;100284.59;;;14.86
71428;BMP280;59246;59.102;37.928;2022-09-03T11:11:16;100280.59;;;14.97
71428;BMP280;59246;59.102;37.928;2022-09-03T11:14:41;100285.94;;;14.97
71428;BMP280;59246;59.102;37.928;2022-09-03T11:21:25;100269.06;;;15.25
71428;BMP280;59246;59.102;37.928;2022-09-03T11:24:12;100275.59;;;15.55
71428;BMP280;59246;59.102;37.928;2022-09-03T11:26:37;100256.03;;;15.46
71428;BMP280;59246;59.102;37.928;2022-09-03T11:31:44;100267.88;;;15.17
71428;BMP280;59246;59.102;37.928;2022-09-03T11:34:14;100262.53;;;15.17
71428;BMP280;59246;59.102;37.928;2022-09-03T11:36:40;100266.50;;;15.42
71428;BMP280;59246;59.102;37.928;2022-09-03T11:39:18;100273.03;;;15.50
71428;BMP280;59246;59.102;37.928;2022-09-03T11:41:55;100259.28;;;15.43
71428;BMP280;59246;59.102;37.928;2022-09-03T11:44:21;100257.47;;;15.52
71428;BMP280;59246;59.102;37.928;2022-09-03T11:46:54;100258.56;;;15.51
71428;BMP280;59246;59.102;37.928;2022-09-03T11:49:27;100250.06;;;15.49
71428;BMP280;59246;59.102;37.928;2022-09-03T11:51:58;100262.81;;;15.74
71428;BMP280;59246;59.102;37.928;2022-09-03T11:54:25;100260.84;;;15.89
71428;BMP280;59246;59.102;37.928;2022-09-03T11:57:08;100246.63;;;16.11
71428;BMP280;59246;59.102;37.928;2022-09-03T11:59:36;100247.78;;;16.18
71428;BMP280;59246;59.102;37.928;2022-09-03T12:02:47;100245.19;;;16.62
71428;BMP280;59246;59.102;37.928;2022-09-03T12:05:12;100246.97;;;17.45
71428;BMP280;59246;59.102;37.928;2022-09-03T12:07:43;100243.06;;;17.16
71428;BMP280;59246;59.102;37.928;2022-09-03T12:15:35;100248.66;;;15.74
71428;BMP280;59246;59.102;37.928;2022-09-03T12:18:10;100267.31;;;18.61
71428;BMP280;59246;59.102;37.928;2022-09-03T12:20:43;100264.56;;;18.49
71428;BMP280;59246;59.102;37.928;2022-09-03T12:23:10;100253.28;;;20.66
71428;BMP280;59246;59.102;37.928;2022-09-03T12:25:41;100262.78;;;23.59
71428;BMP280;59246;59.102;37.928;2022-09-03T12:28:10;100257.69;;;25.78
71428;BMP280;59246;59.102;37.928;2022-09-03T12:30:36;100251.41;;;26.72
71428;BMP280;59246;59.102;37.928;2022-09-03T12:33:03;100256.88;;;26.65
71428;BMP280;59246;59.102;37.928;2022-09-03T12:35:29;100262.84;;;24.19
71428;BMP280;59246;59.102;37.928;2022-09-03T12:37:55;100257.56;;;23.23
71428;BMP280;59246;59.102;37.928;2022-09-03T12:42:46;100253.16;;;25.34
71428;BMP280;59246;59.102;37.928;2022-09-03T12:45:12;100254.16;;;26.90
71428;BMP280;59246;59.102;37.928;2022-09-03T12:47:40;100252.41;;;27.96
71428;BMP280;59246;59.102;37.928;2022-09-03T12:50:16;100248.38;;;28.78
71428;BMP280;59246;59.102;37.928;2022-09-03T12:56:13;100249.59;;;29.15
71428;BMP280;59246;59.102;37.928;2022-09-03T12:59:06;100241.53;;;29.00
71428;BMP280;59246;59.102;37.928;2022-09-03T13:06:09;100259.50;;;21.55
71428;BMP280;59246;59.102;37.928;2022-09-03T13:09:19;100252.13;;;19.53
71428;BMP280;59246;59.102;37.928;2022-09-03T13:15:39;100255.00;;;17.10
71428;BMP280;59246;59.102;37.928;2022-09-03T13:33:20;100237.78;;;26.47
71428;BMP280;59246;59.102;37.928;2022-09-03T13:35:53;100235.50;;;28.19
71428;BMP280;59246;59.102;37.928;2022-09-03T13:38:42;100229.38;;;28.01
71428;BMP280;59246;59.102;37.928;2022-09-03T13:43:52;100229.22;;;23.67
71428;BMP280;59246;59.102;37.928;2022-09-03T13:48:46;100227.47;;;19.76
71428;BMP280;59246;59.102;37.928;2022-09-03T13:51:38;100240.41;;;18.40
71428;BMP280;59246;59.102;37.928;2022-09-03T13:54:14;100235.59;;;17.39
71428;BMP280;59246;59.102;37.928;2022-09-03T13:56:56;100250.25;;;16.64
71428;BMP280;59246;59.102;37.928;2022-09-03T13:59:32;100239.25;;;16.25
71428;BMP280;59246;59.102;37.928;2022-09-03T14:02:04;100248.97;;;15.50
71428;BMP280;59246;59.102;37.928;2022-09-03T14:05:18;100243.81;;;14.53
71428;BMP280;59246;59.102;37.928;2022-09-03T14:07:18;100240.91;;;13.61
71428;BMP280;59246;59.102;37.928;2022-09-03T14:10:03;100236.66;;;13.22
71428;BMP280;59246;59.102;37.928;2022-09-03T14:12:34;100234.72;;;13.09
71428;BMP280;59246;59.102;37.928;2022-09-03T14:15:10;100227.16;;;12.97
71428;BMP280;59246;59.102;37.928;2022-09-03T14:17:47;100219.44;;;12.76
71428;BMP280;59246;59.102;37.928;2022-09-03T14:25:10;100227.34;;;12.33
71428;BMP280;59246;59.102;37.928;2022-09-03T14:27:38;100221.25;;;12.28
71428;BMP280;59246;59.102;37.928;2022-09-03T14:30:16;100231.34;;;12.31
71428;BMP280;59246;59.102;37.928;2022-09-03T14:38:18;100213.50;;;12.31
71428;BMP280;59246;59.102;37.928;2022-09-03T14:40:41;100221.75;;;12.30
71428;BMP280;59246;59.102;37.928;2022-09-03T14:46:47;100214.91;;;12.23
71428;BMP280;59246;59.102;37.928;2022-09-03T14:51:26;100234.06;;;12.26
71428;BMP280;59246;59.102;37.928;2022-09-03T14:56:57;100234.50;;;12.62
71428;BMP280;59246;59.102;37.928;2022-09-03T15:10:06;100203.72;;;11.68
71428;BMP280;59246;59.102;37.928;2022-09-03T15:12:39;100194.69;;;11.64
71428;BMP280;59246;59.102;37.928;2022-09-03T15:15:21;100192.59;;;11.61
71428;BMP280;59246;59.102;37.928;2022-09-03T15:20:31;100192.38;;;11.57
71428;BMP280;59246;59.102;37.928;2022-09-03T15:23:16;100193.47;;;11.51
71428;BMP280;59246;59.102;37.928;2022-09-03T15:25:53;100193.25;;;11.42
71428;BMP280;59246;59.102;37.928;2022-09-03T15:28:26;100197.03;;;11.36
71428;BMP280;59246;59.102;37.928;2022-09-03T15:30:58;100198.88;;;11.36
71428;BMP280;59246;59.102;37.928;2022-09-03T15:33:31;100202.56;;;11.40
71428;BMP280;59246;59.102;37.928;2022-09-03T15:38:38;100206.53;;;11.42
71428;BMP280;59246;59.102;37.928;2022-09-03T15:41:08;100214.03;;;11.35
71428;BMP280;59246;59.102;37.928;2022-09-03T15:43:35;100214.59;;;11.27
71428;BMP280;59246;59.102;37.928;2022-09-03T15:46:09;100197.41;;;11.14
71428;BMP280;59246;59.102;37.928;2022-09-03T15:51:10;100186.66;;;10.85
71428;BMP280;59246;59.102;37.928;2022-09-03T15:59:11;100186.28;;;10.37
71428;BMP280;59246;59.102;37.928;2022-09-03T16:01:58;100179.94;;;10.27
71428;BMP280;59246;59.102;37.928;2022-09-03T16:17:30;100184.69;;;10.15
71428;BMP280;59246;59.102;37.928;2022-09-03T16:27:32;100177.84;;;10.04
71428;BMP280;59246;59.102;37.928;2022-09-03T16:30:00;100188.97;;;9.96
71428;BMP280;59246;59.102;37.928;2022-09-03T16:32:30;100176.53;;;9.86
71428;BMP280;59246;59.102;37.928;2022-09-03T16:37:50;100188.94;;;9.70
71428;BMP280;59246;59.102;37.928;2022-09-03T16:48:03;100192.13;;;9.72
71428;BMP280;59246;59.102;37.928;2022-09-03T17:03:23;100194.75;;;9.62
71428;BMP280;59246;59.102;37.928;2022-09-03T17:14:36;100203.78;;;9.66
71428;BMP280;59246;59.102;37.928;2022-09-03T17:21:53;100219.94;;;9.75
71428;BMP280;59246;59.102;37.928;2022-09-03T17:24:39;100211.72;;;9.71
71428;BMP280;59246;59.102;37.928;2022-09-03T17:30:03;100222.31;;;9.61
71428;BMP280;59246;59.102;37.928;2022-09-03T17:35:19;100222.03;;;9.57
71428;BMP280;59246;59.102;37.928;2022-09-03T17:40:25;100219.63;;;9.56
71428;BMP280;59246;59.102;37.928;2022-09-03T17:45:40;100217.53;;;9.47
71428;BMP280;59246;59.102;37.928;2022-09-03T17:50:51;100215.34;;;9.34
71428;BMP280;59246;59.102;37.928;2022-09-03T17:53:19;100209.25;;;9.28
71428;BMP280;59246;59.102;37.928;2022-09-03T17:56:09;100202.38;;;9.22
71428;BMP280;59246;59.102;37.928;2022-09-03T17:59:36;100195.44;;;9.16
71428;BMP280;59246;59.102;37.928;2022-09-03T18:02:36;100196.25;;;9.11
71428;BMP280;59246;59.102;37.928;2022-09-03T18:13:20;100204.44;;;9.10
71428;BMP280;59246;59.102;37.928;2022-09-03T18:16:05;100196.25;;;9.11
71428;BMP280;59246;59.102;37.928;2022-09-03T18:18:33;100201.28;;;9.13
71428;BMP280;59246;59.102;37.928;2022-09-03T18:21:02;100195.44;;;9.16
71428;BMP280;59246;59.102;37.928;2022-09-03T18:24:03;100195.22;;;9.23
71428;BMP280;59246;59.102;37.928;2022-09-03T18:27:00;100192.56;;;9.28
71428;BMP280;59246;59.102;37.928;2022-09-03T18:29:46;100202.66;;;9.31
71428;BMP280;59246;59.102;37.928;2022-09-03T18:32:31;100198.94;;;9.32
71428;BMP280;59246;59.102;37.928;2022-09-03T18:35:16;100192.84;;;9.31
71428;BMP280;59246;59.102;37.928;2022-09-03T18:38:01;100194.16;;;9.34
71428;BMP280;59246;59.102;37.928;2022-09-03T18:40:50;100210.31;;;9.32
71428;BMP280;59246;59.102;37.928;2022-09-03T18:43:45;100214.81;;;9.32
71428;BMP280;59246;59.102;37.928;2022-09-03T18:46:32;100207.13;;;9.30
71428;BMP280;59246;59.102;37.928;2022-09-03T18:52:16;100193.63;;;9.27
71428;BMP280;59246;59.102;37.928;2022-09-03T18:55:30;100200.22;;;9.24
71428;BMP280;59246;59.102;37.928;2022-09-03T18:58:19;100194.94;;;9.19
71428;BMP280;59246;59.102;37.928;2022-09-03T19:01:13;100212.66;;;9.13
71428;BMP280;59246;59.102;37.928;2022-09-03T19:04:06;100196.75;;;9.08
71428;BMP280;59246;59.102;37.928;2022-09-03T19:07:11;100198.84;;;9.01
71428;BMP280;59246;59.102;37.928;2022-09-03T19:15:50;100191.63;;;8.86
71428;BMP280;59246;59.102;37.928;2022-09-03T19:22:08;100192.09;;;8.78
71428;BMP280;59246;59.102;37.928;2022-09-03T19:28:18;100191.31;;;8.72
71428;BMP280;59246;59.102;37.928;2022-09-03T19:37:18;100187.81;;;8.67
71428;BMP280;59246;59.102;37.928;2022-09-03T19:40:32;100188.03;;;8.60
71428;BMP280;59246;59.102;37.928;2022-09-03T19:52:31;100170.34;;;8.23
71428;BMP280;59246;59.102;37.928;2022-09-03T19:58:35;100181.88;;;8.12